createdAt,value
2018-08-17T00:01:20.344Z,46.70
2018-08-17T00:03:46.734Z,46.75
2018-08-17T00:06:13.071Z,46.73
2018-08-17T00:08:39.418Z,46.91
2018-08-17T00:11:05.750Z,46.86
2018-08-17T00:13:32.090Z,46.98
2018-08-17T00:15:58.474Z,46.86
2018-08-17T00:18:24.798Z,46.88
2018-08-17T00:20:51.127Z,47.06
2018-08-17T00:23:17.506Z,47.08
2018-08-17T00:25:43.869Z,47.11
2018-08-17T00:28:10.249Z,47.15
2018-08-17T00:30:36.598Z,47.22
2018-08-17T00:33:02.956Z,47.13
2018-08-17T00:35:29.323Z,47.17
2018-08-17T00:37:55.723Z,47.22
2018-08-17T00:40:22.171Z,47.31
2018-08-17T00:42:48.515Z,47.26
2018-08-17T00:45:14.920Z,47.26
2018-08-17T00:47:41.279Z,47.46
2018-08-17T00:50:07.612Z,47.41
2018-08-17T00:52:33.933Z,47.42
2018-08-17T00:55:00.302Z,47.49
2018-08-17T00:57:26.753Z,47.43
2018-08-17T00:59:53.113Z,47.52
2018-08-17T01:02:19.464Z,47.62
2018-08-17T01:04:45.795Z,47.63
2018-08-17T01:07:12.181Z,47.77
2018-08-17T01:09:38.565Z,47.69
2018-08-17T01:12:04.902Z,47.90
2018-08-17T01:14:31.234Z,47.72
2018-08-17T01:16:57.631Z,47.85
2018-08-17T01:19:23.970Z,47.99
2018-08-17T01:21:50.312Z,48.09
2018-08-17T01:24:16.690Z,48.05
2018-08-17T01:26:43.056Z,48.20
2018-08-17T01:29:09.401Z,48.08
2018-08-17T01:31:35.732Z,48.11
2018-08-17T01:34:02.063Z,48.21
2018-08-17T01:36:28.394Z,48.17
2018-08-17T01:38:54.795Z,48.28
2018-08-17T01:41:21.147Z,48.29
2018-08-17T01:43:47.564Z,48.37
2018-08-17T01:46:13.925Z,48.35
2018-08-17T01:48:40.255Z,48.44
2018-08-17T01:51:06.588Z,48.44
2018-08-17T01:53:32.944Z,48.54
2018-08-17T01:55:59.266Z,48.50
2018-08-17T01:58:25.692Z,48.53
2018-08-17T02:00:52.056Z,48.60
2018-08-17T02:03:18.395Z,48.66
2018-08-17T02:05:44.786Z,48.66
2018-08-17T02:08:11.106Z,48.71
2018-08-17T02:10:37.499Z,48.78
2018-08-17T02:13:03.875Z,48.76
2018-08-17T02:15:30.214Z,48.76
2018-08-17T02:17:56.541Z,48.89
2018-08-17T02:20:22.921Z,48.96
2018-08-17T02:22:49.263Z,48.93
2018-08-17T02:25:15.643Z,49.01
2018-08-17T02:27:42.094Z,48.91
2018-08-17T02:30:08.431Z,48.91
2018-08-17T02:32:34.794Z,49.04
2018-08-17T02:35:01.203Z,49.05
2018-08-17T02:37:27.567Z,49.18
2018-08-17T02:39:53.907Z,49.27
2018-08-17T02:42:20.243Z,49.18
2018-08-17T02:44:46.577Z,49.14
2018-08-17T02:47:12.907Z,49.29
2018-08-17T02:49:39.273Z,49.28
2018-08-17T02:52:05.602Z,49.27
2018-08-17T02:54:31.936Z,49.25
2018-08-17T02:56:58.315Z,49.42
2018-08-17T02:59:24.739Z,49.32
2018-08-17T03:01:51.031Z,49.27
2018-08-17T03:04:17.422Z,49.41
2018-08-17T03:06:43.763Z,49.31
2018-08-17T03:09:10.121Z,49.43
2018-08-17T03:11:36.465Z,49.40
2018-08-17T03:14:02.850Z,49.48
2018-08-17T03:16:29.192Z,49.31
2018-08-17T03:18:55.537Z,49.18
2018-08-17T03:21:21.867Z,49.09
2018-08-17T03:23:48.231Z,48.98
2018-08-17T03:26:14.566Z,48.90
2018-08-17T03:28:40.903Z,48.83
2018-08-17T03:31:07.231Z,48.70
2018-08-17T03:33:33.574Z,48.70
2018-08-17T03:35:59.983Z,48.76
2018-08-17T03:38:26.315Z,48.70
2018-08-17T03:40:52.691Z,48.66
2018-08-17T03:43:19.063Z,48.66
2018-08-17T03:45:45.407Z,48.62
2018-08-17T03:48:11.747Z,48.66
2018-08-17T03:50:38.090Z,48.53
2018-08-17T03:53:04.436Z,48.55
2018-08-17T03:55:30.801Z,48.69
2018-08-17T03:57:57.134Z,48.67
2018-08-17T04:00:23.468Z,48.62
2018-08-17T04:02:49.838Z,48.68
2018-08-17T04:05:16.167Z,48.63
2018-08-17T04:07:42.568Z,48.65
2018-08-17T04:10:08.927Z,48.69
2018-08-17T04:12:35.243Z,48.73
2018-08-17T04:15:01.580Z,48.76
2018-08-17T04:17:27.916Z,48.73
2018-08-17T04:19:54.267Z,48.60
2018-08-17T04:22:20.634Z,48.70
2018-08-17T04:24:47.017Z,48.73
2018-08-17T04:27:13.355Z,48.78
2018-08-17T04:29:39.687Z,48.69
2018-08-17T04:32:06.163Z,48.74
2018-08-17T04:34:32.529Z,48.85
2018-08-17T04:36:58.956Z,48.79
2018-08-17T04:39:25.357Z,48.86
2018-08-17T04:41:51.733Z,48.88
2018-08-17T04:44:18.068Z,48.89
2018-08-17T04:46:44.411Z,48.89
2018-08-17T04:49:10.752Z,48.88
2018-08-17T04:51:37.088Z,48.84
2018-08-17T04:54:03.440Z,48.82
2018-08-17T04:56:29.876Z,48.86
2018-08-17T04:58:56.240Z,48.90
2018-08-17T05:01:22.594Z,48.92
2018-08-17T05:03:48.933Z,48.89
2018-08-17T05:06:15.277Z,48.89
2018-08-17T05:08:41.667Z,48.81
2018-08-17T05:11:08.020Z,48.93
2018-08-17T05:13:34.388Z,48.97
2018-08-17T05:16:00.759Z,48.90
2018-08-17T05:18:27.103Z,48.98
2018-08-17T05:20:53.440Z,48.89
2018-08-17T05:23:19.892Z,48.87
2018-08-17T05:25:46.186Z,48.95
2018-08-17T05:28:12.552Z,48.90
2018-08-17T05:30:38.918Z,48.92
2018-08-17T05:33:05.271Z,48.92
2018-08-17T05:35:31.651Z,48.95
2018-08-17T05:37:57.987Z,49.05
2018-08-17T05:40:24.331Z,49.08
2018-08-17T05:42:50.706Z,48.93
2018-08-17T05:45:17.082Z,49.02
2018-08-17T05:47:43.481Z,48.74
2018-08-17T05:50:09.832Z,48.79
2018-08-17T05:52:36.303Z,48.62
2018-08-17T05:55:02.690Z,48.78
2018-08-17T05:57:29.037Z,49.31
2018-08-17T05:59:55.393Z,49.92
2018-08-17T06:02:21.798Z,50.61
2018-08-17T06:04:48.161Z,50.76
2018-08-17T06:07:14.487Z,50.88
2018-08-17T06:09:40.818Z,50.94
2018-08-17T06:12:07.177Z,50.64
2018-08-17T06:14:33.549Z,51.19
2018-08-17T06:16:59.944Z,51.11
2018-08-17T06:19:26.300Z,50.95
2018-08-17T06:21:52.642Z,50.61
2018-08-17T06:24:19.026Z,50.99
2018-08-17T06:26:45.467Z,51.04
2018-08-17T06:29:12.934Z,50.79
2018-08-17T06:31:39.427Z,50.74
2018-08-17T06:34:05.799Z,50.66
2018-08-17T06:36:32.202Z,51.21
2018-08-17T06:38:58.748Z,51.11
2018-08-17T06:41:25.120Z,51.15
2018-08-17T06:43:51.526Z,51.09
2018-08-17T06:46:17.903Z,51.43
2018-08-17T06:48:44.291Z,51.53
2018-08-17T06:51:10.682Z,51.06
2018-08-17T06:53:37.001Z,51.13
2018-08-17T06:56:03.370Z,51.13
2018-08-17T06:58:29.745Z,51.02
2018-08-17T07:00:56.066Z,51.08
2018-08-17T07:03:22.393Z,50.99
2018-08-17T07:05:48.911Z,50.99
2018-08-17T07:08:15.298Z,50.85
2018-08-17T07:10:41.702Z,50.68
2018-08-17T07:13:08.120Z,50.59
2018-08-17T07:15:34.518Z,50.42
2018-08-17T07:18:00.869Z,50.32
2018-08-17T07:20:27.243Z,50.49
2018-08-17T07:22:53.615Z,50.19
2018-08-17T07:25:20.065Z,50.05
2018-08-17T07:27:46.522Z,50.33
2018-08-17T07:30:12.781Z,50.22
2018-08-17T07:32:39.123Z,50.08
2018-08-17T07:35:05.494Z,50.34
2018-08-17T07:37:32.005Z,50.18
2018-08-17T07:39:58.360Z,50.19
2018-08-17T07:42:24.770Z,50.01
2018-08-17T07:44:51.225Z,50.07
2018-08-17T07:47:17.656Z,50.08
2018-08-17T07:49:44.030Z,50.01
2018-08-17T07:52:10.421Z,49.84
2018-08-17T07:54:36.764Z,49.82
2018-08-17T07:57:03.160Z,49.85
2018-08-17T07:59:29.557Z,49.70
2018-08-17T08:01:56.027Z,49.53
2018-08-17T08:04:22.356Z,49.52
2018-08-17T08:06:48.692Z,49.39
2018-08-17T08:09:15.023Z,49.46
2018-08-17T08:11:41.372Z,49.89
2018-08-17T08:14:07.794Z,49.76
2018-08-17T08:16:34.164Z,49.63
2018-08-17T08:19:00.549Z,49.86
2018-08-17T08:21:26.990Z,49.53
2018-08-17T08:23:53.339Z,49.40
2018-08-17T08:26:19.739Z,49.39
2018-08-17T08:28:46.128Z,49.27
2018-08-17T08:31:12.532Z,49.27
2018-08-17T08:33:39.017Z,48.86
2018-08-17T08:36:05.368Z,48.79
2018-08-17T08:38:31.699Z,48.73
2018-08-17T08:40:58.064Z,48.30
2018-08-17T08:43:24.398Z,47.79
2018-08-17T08:45:50.791Z,47.50
2018-08-17T08:48:17.223Z,47.81
2018-08-17T08:50:43.646Z,46.90
2018-08-17T08:53:11.156Z,46.32
2018-08-17T08:55:37.513Z,46.39
2018-08-17T08:58:03.900Z,45.86
2018-08-17T09:00:30.310Z,45.97
2018-08-17T09:02:57.555Z,45.66
2018-08-17T09:05:23.902Z,45.73
2018-08-17T09:07:50.232Z,45.13
2018-08-17T09:10:16.566Z,45.23
2018-08-17T09:12:42.953Z,45.24
2018-08-17T09:15:09.300Z,45.14
2018-08-17T09:17:35.686Z,44.48
2018-08-17T09:20:02.022Z,44.40
2018-08-17T09:22:28.413Z,44.41
2018-08-17T09:24:54.777Z,44.55
2018-08-17T09:27:21.238Z,44.35
2018-08-17T09:29:47.590Z,44.00
2018-08-17T09:32:13.977Z,43.81
2018-08-17T09:34:40.370Z,44.74
2018-08-17T09:37:06.716Z,44.20
2018-08-17T09:39:33.239Z,44.37
2018-08-17T09:41:59.639Z,44.53
2018-08-17T09:44:26.124Z,44.09
2018-08-17T09:46:53.435Z,43.80
2018-08-17T09:49:19.944Z,43.96
2018-08-17T09:51:46.349Z,44.09
2018-08-17T09:54:12.759Z,44.57
2018-08-17T09:56:39.293Z,44.45
2018-08-17T09:59:05.718Z,44.93
2018-08-17T10:01:32.150Z,44.24
2018-08-17T10:03:58.586Z,44.25
2018-08-17T10:06:25.029Z,44.48
2018-08-17T10:08:51.456Z,44.32
2018-08-17T10:11:17.856Z,44.38
2018-08-17T10:13:44.223Z,44.54
2018-08-17T10:16:10.594Z,44.74
2018-08-17T10:18:37.004Z,44.31
2018-08-17T10:21:03.493Z,44.45
2018-08-17T10:23:29.772Z,43.58
2018-08-17T10:25:56.150Z,43.96
2018-08-17T10:28:22.595Z,44.35
2018-08-17T10:30:48.996Z,43.48
2018-08-17T10:33:15.432Z,43.48
2018-08-17T10:35:41.798Z,43.07
2018-08-17T10:38:08.239Z,43.79
2018-08-17T10:40:34.673Z,43.70
2018-08-17T10:43:01.107Z,43.42
2018-08-17T10:45:27.485Z,43.06
2018-08-17T10:47:53.975Z,42.90
2018-08-17T10:50:20.349Z,42.84
2018-08-17T10:52:46.768Z,44.39
2018-08-17T10:55:13.102Z,42.84
2018-08-17T10:57:39.494Z,42.75
2018-08-17T11:00:05.835Z,43.41
2018-08-17T11:02:32.268Z,41.06
2018-08-17T11:04:58.654Z,42.50
2018-08-17T11:07:25.020Z,42.33
2018-08-17T11:09:51.490Z,41.74
2018-08-17T11:12:17.897Z,42.30
2018-08-17T11:14:44.373Z,42.28
2018-08-17T11:17:10.866Z,41.84
2018-08-17T11:19:37.263Z,41.73
2018-08-17T11:22:05.682Z,41.07
2018-08-17T11:24:32.108Z,41.83
2018-08-17T11:26:58.517Z,42.00
2018-08-17T11:29:24.863Z,41.29
2018-08-17T11:31:51.249Z,41.42
2018-08-17T11:34:17.678Z,40.68
2018-08-17T11:36:44.061Z,40.34
2018-08-17T11:39:10.570Z,40.95
2018-08-17T11:41:36.944Z,40.52
2018-08-17T11:44:03.423Z,40.59
2018-08-17T11:46:29.810Z,40.02
2018-08-17T11:48:56.166Z,40.75
2018-08-17T11:51:22.584Z,40.69
2018-08-17T11:53:49.050Z,40.78
2018-08-17T11:56:15.599Z,39.52
2018-08-17T11:58:42.147Z,39.96
2018-08-17T12:01:08.601Z,39.42
2018-08-17T12:03:34.968Z,38.11
2018-08-17T12:06:01.464Z,37.85
2018-08-17T12:08:27.899Z,37.96
2018-08-17T12:10:54.294Z,38.78
2018-08-17T12:13:20.644Z,40.06
2018-08-17T12:15:47.023Z,40.19
2018-08-17T12:18:13.402Z,40.39
2018-08-17T12:20:39.862Z,41.36
2018-08-17T12:23:06.197Z,41.12
2018-08-17T12:25:32.729Z,41.40
2018-08-17T12:27:59.080Z,41.94
2018-08-17T12:30:26.000Z,41.90
2018-08-17T12:32:52.331Z,41.94
2018-08-17T12:35:18.742Z,42.14
2018-08-17T12:37:45.115Z,42.11
2018-08-17T12:40:11.651Z,42.11
2018-08-17T12:42:38.136Z,42.12
2018-08-17T12:45:04.536Z,42.05
2018-08-17T12:47:31.008Z,42.20
2018-08-17T12:49:57.369Z,42.58
2018-08-17T12:52:23.826Z,42.47
2018-08-17T12:54:50.155Z,42.47
2018-08-17T12:57:16.555Z,42.33
2018-08-17T12:59:42.929Z,42.08
2018-08-17T13:02:09.327Z,42.50
2018-08-17T13:04:35.829Z,42.46
2018-08-17T13:07:02.300Z,42.61
2018-08-17T13:09:28.846Z,43.30
2018-08-17T13:11:55.200Z,43.00
2018-08-17T13:14:21.567Z,43.12
2018-08-17T13:16:47.904Z,42.94
2018-08-17T13:19:14.327Z,43.22
2018-08-17T13:21:40.726Z,43.19
2018-08-17T13:24:07.127Z,43.05
2018-08-17T13:26:33.453Z,43.16
2018-08-17T13:28:59.851Z,43.05
2018-08-17T13:31:26.310Z,42.97
2018-08-17T13:33:52.763Z,43.18
2018-08-17T13:36:19.115Z,43.32
2018-08-17T13:38:45.470Z,43.12
2018-08-17T13:41:11.853Z,43.50
2018-08-17T13:43:38.263Z,43.10
2018-08-17T13:46:04.646Z,43.32
2018-08-17T13:48:30.998Z,43.92
2018-08-17T13:50:57.400Z,44.52
2018-08-17T13:53:23.747Z,44.30
2018-08-17T13:55:50.132Z,44.38
2018-08-17T13:58:16.523Z,44.45
2018-08-17T14:00:42.874Z,44.28
2018-08-17T14:03:09.230Z,43.87
2018-08-17T14:05:35.633Z,43.86
2018-08-17T14:08:02.000Z,43.62
2018-08-17T14:10:28.415Z,43.06
2018-08-17T14:12:54.762Z,42.77
2018-08-17T14:15:21.260Z,42.84
2018-08-17T14:17:47.724Z,43.26
2018-08-17T14:20:14.253Z,43.51
2018-08-17T14:22:40.597Z,43.90
2018-08-17T14:25:07.119Z,44.21
2018-08-17T14:27:33.521Z,44.35
2018-08-17T14:29:59.975Z,44.89
2018-08-17T14:32:26.350Z,44.89
2018-08-17T14:34:52.825Z,45.95
2018-08-17T14:37:19.189Z,46.03
2018-08-17T14:39:45.684Z,46.35
2018-08-17T14:42:12.054Z,46.13
2018-08-17T14:44:38.389Z,46.14
2018-08-17T14:47:04.857Z,46.15
2018-08-17T14:49:31.230Z,46.41
2018-08-17T14:51:57.684Z,46.28
2018-08-17T14:54:23.970Z,46.29
2018-08-17T14:56:50.363Z,46.23
2018-08-17T14:59:16.745Z,46.73
2018-08-17T15:01:43.174Z,46.83
2018-08-17T15:04:09.583Z,46.83
2018-08-17T15:06:35.955Z,47.36
2018-08-17T15:09:02.330Z,46.98
2018-08-17T15:11:28.665Z,46.96
2018-08-17T15:13:55.064Z,47.25
2018-08-17T15:16:21.391Z,47.11
2018-08-17T15:21:20.163Z,47.22
2018-08-17T15:23:46.535Z,47.02
2018-08-17T15:26:12.889Z,47.26
2018-08-17T15:28:39.341Z,47.15
2018-08-17T15:31:05.664Z,47.15
2018-08-17T15:33:32.040Z,47.00
2018-08-17T15:35:58.367Z,47.65
2018-08-17T15:38:24.770Z,47.21
2018-08-17T15:40:51.172Z,47.50
2018-08-17T15:43:17.491Z,47.12
2018-08-17T15:45:43.904Z,47.07
2018-08-17T15:48:10.342Z,46.91
2018-08-17T15:50:36.717Z,47.25
2018-08-17T15:53:03.077Z,47.29
2018-08-17T15:55:29.458Z,47.34
2018-08-17T15:57:55.836Z,47.04
2018-08-17T16:00:22.207Z,47.27
2018-08-17T16:02:48.554Z,47.75
2018-08-17T16:05:14.916Z,47.47
2018-08-17T16:07:41.318Z,47.85
2018-08-17T16:10:07.764Z,47.73
2018-08-17T16:12:34.134Z,47.89
2018-08-17T16:15:00.469Z,48.24
2018-08-17T16:17:26.843Z,47.73
2018-08-17T16:19:53.172Z,47.80
2018-08-17T16:22:19.508Z,47.86
2018-08-17T16:24:46.020Z,48.41
2018-08-17T16:27:12.334Z,48.41
2018-08-17T16:29:38.707Z,48.32
2018-08-17T16:32:05.151Z,48.19
2018-08-17T16:34:31.418Z,48.40
2018-08-17T16:36:57.810Z,48.80
2018-08-17T16:39:24.135Z,48.54
2018-08-17T16:41:50.530Z,48.33
2018-08-17T16:44:16.852Z,48.78
2018-08-17T16:46:43.353Z,48.68
2018-08-17T16:49:09.711Z,48.70
2018-08-17T16:51:36.078Z,48.63
2018-08-17T16:54:02.411Z,48.95
2018-08-17T16:56:28.755Z,49.03
2018-08-17T16:58:55.174Z,48.91
2018-08-17T17:01:21.505Z,48.75
2018-08-17T17:03:47.907Z,49.18
2018-08-17T17:06:14.268Z,49.15
2018-08-17T17:08:40.592Z,49.22
2018-08-17T17:11:06.920Z,49.09
2018-08-17T17:13:33.302Z,49.45
2018-08-17T17:15:59.674Z,49.56
2018-08-17T17:18:26.098Z,49.31
2018-08-17T17:20:52.515Z,49.44
2018-08-17T17:23:18.819Z,49.36
2018-08-17T17:25:45.184Z,49.53
2018-08-17T17:28:11.576Z,49.73
2018-08-17T17:30:37.965Z,49.63
2018-08-17T17:33:04.310Z,49.73
2018-08-17T17:35:30.681Z,49.58
2018-08-17T17:37:57.017Z,49.64
2018-08-17T17:40:23.399Z,49.81
2018-08-17T17:42:49.706Z,49.85
2018-08-17T17:45:16.035Z,50.10
2018-08-17T17:47:42.379Z,50.01
2018-08-17T17:50:08.743Z,50.06
2018-08-17T17:52:35.071Z,50.05
2018-08-17T17:55:01.432Z,50.22
2018-08-17T17:57:27.813Z,50.48
2018-08-17T17:59:54.217Z,50.39
2018-08-17T18:02:20.549Z,49.98
2018-08-17T18:04:46.989Z,50.27
2018-08-17T18:07:13.289Z,50.66
2018-08-17T18:09:39.676Z,50.55
2018-08-17T18:12:06.063Z,50.53
2018-08-17T18:14:32.405Z,50.27
2018-08-17T18:16:58.737Z,50.27
2018-08-17T18:19:25.096Z,50.40
2018-08-17T18:21:51.488Z,50.26
2018-08-17T18:24:17.840Z,50.49
2018-08-17T18:26:44.191Z,50.42
2018-08-17T18:29:10.599Z,50.46
2018-08-17T18:31:36.913Z,50.51
2018-08-17T18:34:03.314Z,50.45
2018-08-17T18:36:29.704Z,50.63
2018-08-17T18:38:56.067Z,50.23
2018-08-17T18:41:22.460Z,50.34
2018-08-17T18:43:48.792Z,50.66
2018-08-17T18:46:15.156Z,50.42
2018-08-17T18:48:41.485Z,50.47
2018-08-17T18:51:07.848Z,50.75
2018-08-17T18:53:34.179Z,50.49
2018-08-17T18:56:00.565Z,50.50
2018-08-17T18:58:26.893Z,50.56
2018-08-17T19:00:53.256Z,51.10
2018-08-17T19:03:19.639Z,50.91
2018-08-17T19:05:46.019Z,51.14
2018-08-17T19:08:12.364Z,51.43
2018-08-17T19:10:38.745Z,51.10
2018-08-17T19:13:05.139Z,51.36
2018-08-17T19:15:31.498Z,51.47
2018-08-17T19:17:57.839Z,51.41
2018-08-17T19:20:24.179Z,51.47
2018-08-17T19:22:50.510Z,51.50
2018-08-17T19:25:16.706Z,51.69
2018-08-17T19:27:43.033Z,51.42
2018-08-17T19:30:09.360Z,51.62
2018-08-17T19:32:35.728Z,51.95
2018-08-17T19:35:02.076Z,51.65
2018-08-17T19:37:28.421Z,51.82
2018-08-17T19:39:54.879Z,51.89
2018-08-17T19:42:21.248Z,52.24
2018-08-17T19:44:47.575Z,52.01
2018-08-17T19:47:13.942Z,52.11
2018-08-17T19:49:40.274Z,52.13
2018-08-17T19:52:06.662Z,51.95
2018-08-17T19:54:33.039Z,52.26
2018-08-17T19:56:59.399Z,52.29
2018-08-17T19:59:25.732Z,52.42
2018-08-17T20:01:52.112Z,52.40
2018-08-17T20:04:18.438Z,52.20
2018-08-17T20:06:44.821Z,52.32
2018-08-17T20:09:11.168Z,52.33
2018-08-17T20:11:37.535Z,52.63
2018-08-17T20:14:03.914Z,52.57
2018-08-17T20:16:30.272Z,52.87
2018-08-17T20:18:56.667Z,52.52
2018-08-17T20:21:22.999Z,52.72
2018-08-17T20:23:49.328Z,52.60
2018-08-17T20:26:15.950Z,53.19
2018-08-17T20:28:42.097Z,52.79
2018-08-17T20:31:08.458Z,53.01
2018-08-17T20:33:34.928Z,53.14
2018-08-17T20:36:01.271Z,52.75
2018-08-17T20:38:27.665Z,53.56
2018-08-17T20:40:54.129Z,53.19
2018-08-17T20:43:20.454Z,52.84
2018-08-17T20:45:46.791Z,53.06
2018-08-17T20:48:13.128Z,52.91
2018-08-17T20:50:39.459Z,53.20
2018-08-17T20:53:05.804Z,53.20
2018-08-17T20:55:32.224Z,53.20
2018-08-17T20:57:58.642Z,53.39
2018-08-17T21:00:25.007Z,53.21
2018-08-17T21:02:51.370Z,53.32
2018-08-17T21:05:17.757Z,53.09
2018-08-17T21:07:44.102Z,53.69
2018-08-17T21:10:10.444Z,53.71
2018-08-17T21:12:36.842Z,53.36
2018-08-17T21:15:03.174Z,53.43
2018-08-17T21:17:29.509Z,53.30
2018-08-17T21:19:55.849Z,53.72
2018-08-17T21:22:22.282Z,53.50
2018-08-17T21:24:48.678Z,53.52
2018-08-17T21:27:15.035Z,53.84
2018-08-17T21:29:41.359Z,53.84
2018-08-17T21:32:07.687Z,53.71
2018-08-17T21:34:34.138Z,53.94
2018-08-17T21:37:00.519Z,53.56
2018-08-17T21:39:26.862Z,53.92
2018-08-17T21:41:53.229Z,53.84
2018-08-17T21:44:19.588Z,54.42
2018-08-17T21:46:45.917Z,53.96
2018-08-17T21:49:12.272Z,54.24
2018-08-17T21:51:38.611Z,54.07
2018-08-17T21:54:04.959Z,54.33
2018-08-17T21:56:31.309Z,54.10
2018-08-17T21:58:57.768Z,54.24
2018-08-17T22:01:24.142Z,54.51
2018-08-17T22:03:50.477Z,54.33
2018-08-17T22:06:16.821Z,54.32
2018-08-17T22:08:43.175Z,54.63
2018-08-17T22:11:09.570Z,54.81
2018-08-17T22:13:35.901Z,54.39
2018-08-17T22:16:02.272Z,54.38
2018-08-17T22:18:28.653Z,54.45
2018-08-17T22:20:55.002Z,54.39
2018-08-17T22:23:21.334Z,54.26
2018-08-17T22:25:47.687Z,54.55
2018-08-17T22:28:14.012Z,54.60
2018-08-17T22:30:40.440Z,54.52
2018-08-17T22:33:06.811Z,54.77
2018-08-17T22:35:33.207Z,54.78
2018-08-17T22:37:59.533Z,54.97
2018-08-17T22:40:25.911Z,54.39
2018-08-17T22:42:52.246Z,54.58
2018-08-17T22:45:18.585Z,54.79
2018-08-17T22:47:44.923Z,54.63
2018-08-17T22:50:11.324Z,54.75
2018-08-17T22:52:37.729Z,54.75
2018-08-17T22:55:04.068Z,54.78
2018-08-17T22:57:30.403Z,54.45
2018-08-17T22:59:56.717Z,54.61
2018-08-17T23:02:23.036Z,54.50
2018-08-17T23:04:49.373Z,54.91
2018-08-17T23:07:15.719Z,54.77
2018-08-17T23:09:42.105Z,54.89
2018-08-17T23:12:08.451Z,54.82
2018-08-17T23:14:34.831Z,54.99
2018-08-17T23:17:01.151Z,55.24
2018-08-17T23:19:27.508Z,55.14
2018-08-17T23:21:53.861Z,54.88
2018-08-17T23:24:20.203Z,55.07
2018-08-17T23:26:46.547Z,54.97
2018-08-17T23:29:12.910Z,55.10
2018-08-17T23:31:39.288Z,55.27
2018-08-17T23:34:05.648Z,55.06
2018-08-17T23:36:31.992Z,55.00
2018-08-17T23:38:58.380Z,55.34
2018-08-17T23:41:24.823Z,55.10
2018-08-17T23:43:51.071Z,55.07
2018-08-17T23:46:17.437Z,55.20
2018-08-17T23:48:43.771Z,54.81
2018-08-17T23:51:10.172Z,55.32
2018-08-17T23:53:36.605Z,55.07
2018-08-17T23:56:02.919Z,55.01
2018-08-17T23:58:29.243Z,55.13
